createdAt,value
2022-11-26T00:02:47.928Z,98360.28
2022-11-26T00:05:54.144Z,98367.28
2022-11-26T00:08:56.342Z,98363.03
2022-11-26T00:11:58.396Z,98365.03
2022-11-26T00:15:19.741Z,98368.75
2022-11-26T00:18:28.955Z,98369.19
2022-11-26T00:21:33.954Z,98367.88
2022-11-26T00:24:36.337Z,98371.53
2022-11-26T00:27:38.647Z,98363.28
2022-11-26T00:30:40.774Z,98373.44
2022-11-26T00:33:42.803Z,98366.50
2022-11-26T00:36:45.024Z,98382.22
2022-11-26T00:39:47.954Z,98384.63
2022-11-26T00:42:51.125Z,98395.00
2022-11-26T00:45:53.210Z,98398.47
2022-11-26T00:48:55.329Z,98389.69
2022-11-26T00:51:57.500Z,98395.78
2022-11-26T00:55:03.572Z,98391.47
2022-11-26T00:58:07.656Z,98395.78
2022-11-26T01:01:13.833Z,98392.53
2022-11-26T01:04:16.250Z,98395.09
2022-11-26T01:07:18.405Z,98395.63
2022-11-26T01:10:23.634Z,98403.41
2022-11-26T01:13:26.114Z,98407.94
2022-11-26T01:16:35.765Z,98403.06
2022-11-26T01:19:37.967Z,98412.88
2022-11-26T01:22:40.045Z,98416.44
2022-11-26T01:25:42.372Z,98415.38
2022-11-26T01:28:45.915Z,98425.63
2022-11-26T01:31:48.143Z,98427.25
2022-11-26T01:34:50.196Z,98430.56
2022-11-26T01:37:52.300Z,98426.00
2022-11-26T01:41:00.290Z,98435.38
2022-11-26T01:44:06.207Z,98445.84
2022-11-26T01:47:23.405Z,98456.31
2022-11-26T01:50:28.815Z,98447.47
2022-11-26T01:53:39.167Z,98448.03
2022-11-26T01:56:52.991Z,98450.56
2022-11-26T02:00:01.665Z,98450.63
2022-11-26T02:03:05.235Z,98461.97
2022-11-26T02:06:16.169Z,98456.72
2022-11-26T02:09:19.071Z,98458.44
2022-11-26T02:12:21.447Z,98465.16
2022-11-26T02:15:28.129Z,98463.22
2022-11-26T02:18:38.136Z,98464.78
2022-11-26T02:21:52.317Z,98465.63
2022-11-26T02:25:35.457Z,98457.00
2022-11-26T02:29:15.494Z,98459.63
2022-11-26T02:32:23.067Z,98455.22
2022-11-26T02:35:37.688Z,98461.31
2022-11-26T02:38:40.217Z,98461.31
2022-11-26T02:41:48.246Z,98457.63
2022-11-26T02:44:50.554Z,98461.88
2022-11-26T02:47:56.994Z,98461.03
2022-11-26T02:51:05.140Z,98469.03
2022-11-26T02:54:09.076Z,98458.41
2022-11-26T02:57:14.934Z,98477.56
2022-11-26T03:00:18.078Z,98480.91
2022-11-26T03:03:24.614Z,98480.91
2022-11-26T03:06:31.509Z,98486.16
2022-11-26T03:09:53.661Z,98494.06
2022-11-26T03:12:55.798Z,98486.22
2022-11-26T03:15:58.310Z,98484.38
2022-11-26T03:19:00.357Z,98483.47
2022-11-26T03:22:02.459Z,98487.91
2022-11-26T03:25:06.282Z,98489.63
2022-11-26T03:28:08.455Z,98493.22
2022-11-26T03:31:10.633Z,98494.19
2022-11-26T03:34:12.738Z,98493.84
2022-11-26T03:37:14.817Z,98500.78
2022-11-26T03:40:17.914Z,98498.25
2022-11-26T03:43:19.958Z,98511.34
2022-11-26T03:46:22.131Z,98500.88
2022-11-26T03:49:24.267Z,98504.41
2022-11-26T03:52:26.349Z,98499.06
2022-11-26T03:55:28.372Z,98514.78
2022-11-26T03:58:30.485Z,98510.56
2022-11-26T04:01:33.141Z,98523.72
2022-11-26T04:04:35.266Z,98513.88
2022-11-26T04:07:37.433Z,98530.50
2022-11-26T04:10:39.467Z,98528.03
2022-11-26T04:13:41.553Z,98533.41
2022-11-26T04:16:43.673Z,98532.69
2022-11-26T04:19:45.743Z,98541.50
2022-11-26T04:22:47.901Z,98548.41
2022-11-26T04:25:50.029Z,98547.41
2022-11-26T04:28:52.219Z,98550.88
2022-11-26T04:31:54.347Z,98552.59
2022-11-26T04:34:56.438Z,98556.91
2022-11-26T04:37:58.497Z,98558.66
2022-11-26T04:41:00.809Z,98565.59
2022-11-26T04:44:02.937Z,98560.44
2022-11-26T04:47:05.062Z,98559.66
2022-11-26T04:50:07.879Z,98571.75
2022-11-26T04:53:10.435Z,98572.38
2022-11-26T04:56:12.505Z,98579.06
2022-11-26T04:59:14.532Z,98580.59
2022-11-26T05:02:16.620Z,98584.84
2022-11-26T05:05:18.902Z,98592.78
2022-11-26T05:08:20.990Z,98587.59
2022-11-26T05:11:23.099Z,98589.47
2022-11-26T05:14:25.260Z,98594.78
2022-11-26T05:17:27.380Z,98598.25
2022-11-26T05:20:29.495Z,98596.59
2022-11-26T05:23:31.501Z,98593.97
2022-11-26T05:26:34.005Z,98594.97
2022-11-26T05:29:36.216Z,98599.50
2022-11-26T05:32:38.315Z,98613.78
2022-11-26T05:35:40.415Z,98607.84
2022-11-26T05:38:42.530Z,98609.69
2022-11-26T05:41:44.588Z,98611.31
2022-11-26T05:44:46.679Z,98623.63
2022-11-26T05:47:48.729Z,98628.97
2022-11-26T05:50:58.405Z,98633.44
2022-11-26T05:54:00.510Z,98631.81
2022-11-26T05:57:02.557Z,98639.59
2022-11-26T06:00:05.540Z,98640.38
2022-11-26T06:03:19.582Z,98647.31
2022-11-26T06:06:22.281Z,98651.56
2022-11-26T06:09:24.429Z,98643.44
2022-11-26T06:12:26.511Z,98651.16
2022-11-26T06:15:28.628Z,98658.03
2022-11-26T06:18:30.612Z,98661.50
2022-11-26T06:21:32.642Z,98670.13
2022-11-26T06:24:35.031Z,98656.97
2022-11-26T06:27:37.746Z,98667.44
2022-11-26T06:30:39.814Z,98670.78
2022-11-26T06:33:41.879Z,98668.72
2022-11-26T06:36:44.060Z,98686.00
2022-11-26T06:39:46.199Z,98677.25
2022-11-26T06:42:53.098Z,98679.84
2022-11-26T06:45:55.178Z,98687.72
2022-11-26T06:49:02.774Z,98691.81
2022-11-26T06:52:05.028Z,98692.66
2022-11-26T06:55:07.817Z,98697.97
2022-11-26T06:58:09.954Z,98702.44
2022-11-26T07:01:15.727Z,98700.66
2022-11-26T07:04:17.818Z,98701.44
2022-11-26T07:07:20.029Z,98705.75
2022-11-26T07:10:22.211Z,98716.19
2022-11-26T07:13:24.286Z,98717.81
2022-11-26T07:16:26.483Z,98718.72
2022-11-26T07:19:28.632Z,98723.88
2022-11-26T07:22:30.695Z,98727.25
2022-11-26T07:25:32.759Z,98734.91
2022-11-26T07:28:35.902Z,98733.84
2022-11-26T07:31:38.028Z,98733.59
2022-11-26T07:34:41.063Z,98747.41
2022-11-26T07:37:43.679Z,98744.56
2022-11-26T07:40:45.839Z,98743.22
2022-11-26T07:43:48.007Z,98747.91
2022-11-26T07:46:52.233Z,98742.25
2022-11-26T07:49:54.357Z,98749.81
2022-11-26T07:52:56.590Z,98748.81
2022-11-26T07:55:59.060Z,98755.91
2022-11-26T07:59:01.922Z,98769.03
2022-11-26T08:02:03.999Z,98759.00
2022-11-26T08:05:06.901Z,98763.75
2022-11-26T08:08:09.131Z,98761.72
2022-11-26T08:11:17.142Z,98769.22
2022-11-26T08:14:19.256Z,98770.53
2022-11-26T08:17:21.597Z,98776.25
2022-11-26T08:20:28.705Z,98762.63
2022-11-26T08:23:32.321Z,98776.53
2022-11-26T08:26:39.670Z,98767.41
2022-11-26T08:29:44.619Z,98770.44
2022-11-26T08:32:46.612Z,98766.50
2022-11-26T08:36:06.037Z,98771.69
2022-11-26T08:39:13.934Z,98758.94
2022-11-26T08:42:15.994Z,98774.09
2022-11-26T08:45:18.031Z,98775.75
2022-11-26T08:48:20.186Z,98774.94
2022-11-26T08:51:22.461Z,98768.13
2022-11-26T08:54:24.884Z,98775.47
2022-11-26T08:57:26.977Z,98776.38
2022-11-26T09:00:29.042Z,98781.22
2022-11-26T09:03:32.590Z,98787.47
2022-11-26T09:06:37.459Z,98799.59
2022-11-26T09:09:39.822Z,98793.34
2022-11-26T09:12:42.671Z,98793.75
2022-11-26T09:15:44.735Z,98799.25
2022-11-26T09:18:46.769Z,98804.75
2022-11-26T09:21:49.264Z,98806.06
2022-11-26T09:24:51.309Z,98807.53
2022-11-26T09:27:53.469Z,98805.59
2022-11-26T09:30:59.501Z,98810.09
2022-11-26T09:34:02.976Z,98810.47
2022-11-26T09:37:05.035Z,98819.88
2022-11-26T09:40:07.776Z,98827.28
2022-11-26T09:43:38.593Z,98825.28
2022-11-26T09:47:14.868Z,98828.16
2022-11-26T09:50:29.078Z,98833.78
2022-11-26T09:53:36.734Z,98837.44
2022-11-26T09:56:38.849Z,98829.59
2022-11-26T09:59:42.192Z,98825.00
2022-11-26T10:02:44.379Z,98826.19
2022-11-26T10:05:59.755Z,98823.34
2022-11-26T10:09:22.832Z,98826.25
2022-11-26T10:13:03.542Z,98818.31
2022-11-26T10:16:17.499Z,98810.81
2022-11-26T10:19:48.753Z,98824.88
2022-11-26T10:23:13.977Z,98813.69
2022-11-26T10:26:17.242Z,98809.53
2022-11-26T10:29:28.266Z,98812.47
2022-11-26T10:32:39.318Z,98802.75
2022-11-26T10:35:44.642Z,98804.13
2022-11-26T10:38:46.873Z,98803.50
2022-11-26T10:41:49.155Z,98813.47
2022-11-26T10:44:53.252Z,98816.88
2022-11-26T10:48:23.479Z,98810.91
2022-11-26T10:51:30.550Z,98806.91
2022-11-26T10:54:38.164Z,98811.91
2022-11-26T10:57:44.760Z,98807.94
2022-11-26T11:00:49.686Z,98803.75
2022-11-26T11:04:10.511Z,98800.16
2022-11-26T11:07:38.979Z,98812.78
2022-11-26T11:10:57.270Z,98806.84
2022-11-26T11:13:59.327Z,98817.56
2022-11-26T11:17:01.550Z,98806.53
2022-11-26T11:20:26.541Z,98809.44
2022-11-26T11:23:52.649Z,98801.28
2022-11-26T11:26:57.480Z,98809.88
2022-11-26T11:30:02.746Z,98804.91
2022-11-26T11:33:22.968Z,98814.06
2022-11-26T11:36:29.661Z,98805.84
2022-11-26T11:39:34.512Z,98818.84
2022-11-26T11:42:36.602Z,98820.38
2022-11-26T11:45:42.392Z,98818.06
2022-11-26T11:48:47.653Z,98828.63
2022-11-26T11:52:14.482Z,98829.88
2022-11-26T11:55:25.888Z,98828.63
2022-11-26T11:58:39.928Z,98834.06
2022-11-26T12:02:00.415Z,98837.91
2022-11-26T12:05:35.757Z,98836.50
2022-11-26T12:08:37.877Z,98834.38
2022-11-26T12:12:03.193Z,98838.13
2022-11-26T12:15:13.310Z,98840.66
2022-11-26T12:18:35.650Z,98839.22
2022-11-26T12:21:44.771Z,98839.88
2022-11-26T12:24:53.109Z,98833.38
2022-11-26T12:28:01.903Z,98831.09
2022-11-26T12:31:06.711Z,98826.06
2022-11-26T12:34:12.913Z,98817.25
2022-11-26T12:37:20.168Z,98818.63
2022-11-26T12:40:37.910Z,98820.81
2022-11-26T12:44:05.648Z,98826.19
2022-11-26T12:47:22.155Z,98836.34
2022-11-26T12:50:45.150Z,98816.75
2022-11-26T12:54:02.522Z,98838.22
2022-11-26T12:57:04.597Z,98835.41
2022-11-26T13:00:15.264Z,98834.22
2022-11-26T13:03:18.747Z,98832.75
2022-11-26T13:06:46.936Z,98837.16
2022-11-26T13:10:01.707Z,98843.75
2022-11-26T13:13:28.237Z,98841.03
2022-11-26T13:16:52.101Z,98836.09
2022-11-26T13:20:09.434Z,98841.44
2022-11-26T13:23:43.637Z,98841.59
2022-11-26T13:27:07.654Z,98839.88
2022-11-26T13:30:18.639Z,98835.25
2022-11-26T13:33:38.175Z,98833.06
2022-11-26T13:37:07.378Z,98839.88
2022-11-26T13:40:31.081Z,98849.31
2022-11-26T13:43:41.948Z,98849.84
2022-11-26T13:47:13.743Z,98852.03
2022-11-26T13:50:28.969Z,98845.78
2022-11-26T13:53:39.721Z,98855.22
2022-11-26T13:56:43.413Z,98853.22
2022-11-26T13:59:47.825Z,98845.16
2022-11-26T14:02:49.925Z,98852.16
2022-11-26T14:05:52.182Z,98850.78
2022-11-26T14:08:54.813Z,98853.72
2022-11-26T14:11:57.397Z,98855.88
2022-11-26T14:14:59.492Z,98862.66
2022-11-26T14:18:01.609Z,98866.28
2022-11-26T14:21:04.484Z,98859.25
2022-11-26T14:24:06.626Z,98866.41
2022-11-26T14:27:08.875Z,98871.81
2022-11-26T14:30:13.694Z,98863.16
2022-11-26T14:33:24.382Z,98872.03
2022-11-26T14:36:28.741Z,98877.09
2022-11-26T14:39:32.161Z,98869.59
2022-11-26T14:42:34.347Z,98867.06
2022-11-26T14:45:37.139Z,98869.16
2022-11-26T14:48:44.064Z,98870.78
2022-11-26T14:51:50.391Z,98872.34
2022-11-26T14:54:56.377Z,98874.47
2022-11-26T14:58:09.327Z,98885.34
2022-11-26T15:01:22.438Z,98881.13
2022-11-26T15:04:26.034Z,98881.75
2022-11-26T15:07:29.461Z,98881.53
2022-11-26T15:10:38.283Z,98881.19
2022-11-26T15:13:44.486Z,98880.81
2022-11-26T15:16:55.387Z,98886.50
2022-11-26T15:20:02.050Z,98894.06
2022-11-26T15:23:06.840Z,98894.47
2022-11-26T15:26:17.568Z,98898.25
2022-11-26T15:29:41.612Z,98894.28
2022-11-26T15:32:43.810Z,98894.75
2022-11-26T15:35:45.995Z,98892.94
2022-11-26T15:39:12.480Z,98892.84
2022-11-26T15:42:30.150Z,98890.19
2022-11-26T15:45:40.787Z,98896.41
2022-11-26T15:48:52.396Z,98893.03
2022-11-26T15:52:00.353Z,98904.44
2022-11-26T15:55:15.678Z,98901.63
2022-11-26T15:58:24.624Z,98898.53
2022-11-26T16:01:32.895Z,98901.34
2022-11-26T16:04:43.115Z,98906.66
2022-11-26T16:07:57.453Z,98911.03
2022-11-26T16:11:09.181Z,98908.84
2022-11-26T16:14:32.444Z,98924.56
2022-11-26T16:17:35.019Z,98918.94
2022-11-26T16:20:37.695Z,98921.69
2022-11-26T16:23:40.818Z,98936.09
2022-11-26T16:27:18.324Z,98938.25
2022-11-26T16:30:20.576Z,98939.97
2022-11-26T16:33:22.682Z,98943.63
2022-11-26T16:36:28.765Z,98941.13
2022-11-26T16:39:37.539Z,98949.78
2022-11-26T16:42:44.237Z,98964.91
2022-11-26T16:45:48.872Z,98961.34
2022-11-26T16:48:51.640Z,98950.78
2022-11-26T16:51:55.991Z,98948.00
2022-11-26T16:54:59.722Z,98936.44
2022-11-26T16:58:02.917Z,98944.19
2022-11-26T17:01:05.265Z,98943.50
2022-11-26T17:04:07.593Z,98942.78
2022-11-26T17:07:25.423Z,98950.75
2022-11-26T17:10:29.696Z,98950.00
2022-11-26T17:13:32.612Z,98956.13
2022-11-26T17:16:35.597Z,98948.28
2022-11-26T17:19:38.073Z,98956.88
2022-11-26T17:22:40.543Z,98963.72
2022-11-26T17:25:49.051Z,98964.22
2022-11-26T17:28:52.721Z,98963.88
2022-11-26T17:31:55.156Z,98964.47
2022-11-26T17:34:57.465Z,98967.88
2022-11-26T17:37:59.634Z,98971.25
2022-11-26T17:41:02.006Z,98962.59
2022-11-26T17:44:04.656Z,98964.38
2022-11-26T17:47:22.210Z,98980.88
2022-11-26T17:50:27.780Z,98967.03
2022-11-26T17:53:30.147Z,98961.91
2022-11-26T17:56:33.120Z,98951.50
2022-11-26T17:59:35.865Z,98963.75
2022-11-26T18:02:38.339Z,98955.97
2022-11-26T18:05:42.433Z,98959.47
2022-11-26T18:08:45.474Z,98960.69
2022-11-26T18:11:50.675Z,98958.28
2022-11-26T18:14:57.404Z,98962.97
2022-11-26T18:18:01.273Z,98966.84
2022-11-26T18:21:03.983Z,98970.78
2022-11-26T18:24:07.797Z,98971.25
2022-11-26T18:27:10.101Z,98962.94
2022-11-26T18:30:13.431Z,98964.72
2022-11-26T18:33:16.829Z,98971.50
2022-11-26T18:36:20.229Z,98969.69
2022-11-26T18:39:23.229Z,98968.84
2022-11-26T18:42:41.031Z,98970.34
2022-11-26T18:45:44.122Z,98958.72
2022-11-26T18:48:48.911Z,98967.97
2022-11-26T18:51:51.470Z,98958.19
2022-11-26T18:54:54.893Z,98967.75
2022-11-26T18:57:57.769Z,98976.28
2022-11-26T19:01:00.714Z,98970.25
2022-11-26T19:04:03.544Z,98965.03
2022-11-26T19:07:06.394Z,98967.75
2022-11-26T19:10:09.901Z,98972.34
2022-11-26T19:13:13.393Z,98979.44
2022-11-26T19:16:18.492Z,98978.44
2022-11-26T19:19:22.097Z,98986.38
2022-11-26T19:22:25.522Z,98989.34
2022-11-26T19:25:30.670Z,98993.94
2022-11-26T19:28:34.044Z,98989.91
2022-11-26T19:31:39.508Z,98994.50
2022-11-26T19:34:41.942Z,98990.50
2022-11-26T19:37:45.127Z,98994.41
2022-11-26T19:40:48.146Z,98995.72
2022-11-26T19:43:51.190Z,99005.69
2022-11-26T19:46:54.560Z,99003.31
2022-11-26T19:49:58.077Z,99024.22
2022-11-26T19:53:01.359Z,99019.97
2022-11-26T19:56:11.928Z,99020.16
2022-11-26T19:59:17.073Z,99015.97
2022-11-26T20:02:21.604Z,99021.25
2022-11-26T20:05:24.292Z,99024.91
2022-11-26T20:08:27.170Z,99013.97
2022-11-26T20:11:30.444Z,99018.72
2022-11-26T20:14:33.468Z,99020.75
2022-11-26T20:17:36.657Z,99031.41
2022-11-26T20:20:40.381Z,99030.59
2022-11-26T20:23:43.839Z,99043.69
2022-11-26T20:26:48.790Z,99034.09
2022-11-26T20:29:51.775Z,99037.53
2022-11-26T20:32:55.791Z,99036.66
2022-11-26T20:36:00.104Z,99033.91
2022-11-26T20:39:03.756Z,99031.28
2022-11-26T20:42:06.945Z,99030.31
2022-11-26T20:45:10.325Z,99032.00
2022-11-26T20:48:14.376Z,99033.66
2022-11-26T20:51:20.142Z,99030.19
2022-11-26T20:54:23.241Z,99028.56
2022-11-26T20:57:26.023Z,99023.44
2022-11-26T21:00:29.895Z,99028.63
2022-11-26T21:03:32.211Z,99032.00
2022-11-26T21:06:35.817Z,99031.13
2022-11-26T21:09:38.482Z,99028.44
2022-11-26T21:12:41.088Z,99038.00
2022-11-26T21:15:44.366Z,99043.16
2022-11-26T21:18:46.691Z,99043.06
2022-11-26T21:21:49.427Z,99040.56
2022-11-26T21:24:51.601Z,99036.03
2022-11-26T21:27:55.946Z,99043.06
2022-11-26T21:30:59.032Z,99033.47
2022-11-26T21:34:07.125Z,99029.34
2022-11-26T21:37:09.951Z,99040.00
2022-11-26T21:40:12.710Z,99039.41
2022-11-26T21:43:15.423Z,99041.50
2022-11-26T21:46:26.116Z,99038.09
2022-11-26T21:49:31.116Z,99034.91
2022-11-26T21:52:33.344Z,99034.47
2022-11-26T21:55:35.628Z,99030.13
2022-11-26T21:58:37.849Z,99036.50
2022-11-26T22:01:40.229Z,99041.09
2022-11-26T22:04:42.370Z,99037.19
2022-11-26T22:07:44.453Z,99038.31
2022-11-26T22:10:46.551Z,99038.69
2022-11-26T22:13:48.853Z,99032.81
2022-11-26T22:16:52.701Z,99048.63
2022-11-26T22:19:54.712Z,99048.13
2022-11-26T22:22:56.804Z,99034.50
2022-11-26T22:25:58.976Z,99024.34
2022-11-26T22:29:01.288Z,99030.59
2022-11-26T22:32:03.322Z,99022.16
2022-11-26T22:35:05.777Z,99028.47
2022-11-26T22:38:07.838Z,99026.91
2022-11-26T22:41:12.677Z,99033.06
2022-11-26T22:44:16.242Z,99026.31
2022-11-26T22:47:18.410Z,99035.19
2022-11-26T22:50:20.913Z,99031.06
2022-11-26T22:53:23.357Z,99025.16
2022-11-26T22:56:26.616Z,99021.81
2022-11-26T22:59:28.884Z,99025.38
2022-11-26T23:02:31.033Z,99026.31
2022-11-26T23:05:37.723Z,99031.56
2022-11-26T23:08:41.203Z,99025.63
2022-11-26T23:11:49.110Z,99030.88
2022-11-26T23:14:51.209Z,99029.28
2022-11-26T23:17:53.208Z,99032.81
2022-11-26T23:21:09.067Z,99031.94
2022-11-26T23:24:11.453Z,99041.59
2022-11-26T23:27:13.539Z,99032.94
2022-11-26T23:30:16.236Z,99049.38
2022-11-26T23:33:18.944Z,99039.03
2022-11-26T23:36:21.849Z,99045.97
2022-11-26T23:39:23.927Z,99046.88
2022-11-26T23:42:26.228Z,99040.03
2022-11-26T23:45:28.340Z,99039.25
2022-11-26T23:48:31.246Z,99046.16
2022-11-26T23:51:34.011Z,99045.31
2022-11-26T23:54:36.130Z,99047.00
2022-11-26T23:57:38.230Z,99046.97
